createdAt,value
2022-12-04T00:01:06.066Z,49.81
2022-12-04T00:03:34.051Z,49.78
2022-12-04T00:06:05.848Z,49.72
2022-12-04T00:08:33.763Z,49.57
2022-12-04T00:11:01.683Z,49.64
2022-12-04T00:13:30.981Z,49.63
2022-12-04T00:15:59.397Z,49.63
2022-12-04T00:18:27.371Z,49.65
2022-12-04T00:20:55.355Z,49.54
2022-12-04T00:23:25.717Z,49.24
2022-12-04T00:25:53.642Z,49.20
2022-12-04T00:28:21.620Z,49.25
2022-12-04T00:30:51.069Z,49.04
2022-12-04T00:33:18.988Z,48.96
2022-12-04T00:35:46.895Z,49.00
2022-12-04T00:38:14.849Z,49.31
2022-12-04T00:40:50.369Z,49.07
2022-12-04T00:43:18.363Z,48.97
2022-12-04T00:45:46.304Z,49.05
2022-12-04T00:48:15.709Z,49.03
2022-12-04T00:50:43.654Z,49.17
2022-12-04T00:53:11.543Z,49.30
2022-12-04T00:55:40.844Z,49.46
2022-12-04T00:58:09.039Z,49.66
2022-12-04T01:00:37.073Z,49.96
2022-12-04T01:03:05.310Z,50.03
2022-12-04T01:05:39.081Z,50.16
2022-12-04T01:08:07.160Z,50.33
2022-12-04T01:10:35.193Z,50.46
2022-12-04T01:13:03.119Z,50.51
2022-12-04T01:15:31.058Z,50.78
2022-12-04T01:17:58.960Z,50.91
2022-12-04T01:20:26.864Z,51.03
2022-12-04T01:22:56.158Z,50.93
2022-12-04T01:25:24.075Z,51.07
2022-12-04T01:27:52.002Z,51.14
2022-12-04T01:30:20.049Z,51.25
2022-12-04T01:32:47.995Z,51.36
2022-12-04T01:35:15.994Z,51.54
2022-12-04T01:37:43.888Z,51.43
2022-12-04T01:40:15.048Z,51.51
2022-12-04T01:42:43.056Z,51.43
2022-12-04T01:45:38.939Z,51.71
2022-12-04T01:48:11.362Z,51.49
2022-12-04T01:50:39.245Z,51.70
2022-12-04T01:53:07.149Z,51.59
2022-12-04T01:55:36.458Z,51.47
2022-12-04T01:58:04.354Z,51.32
2022-12-04T02:00:32.275Z,51.25
2022-12-04T02:03:00.298Z,51.15
2022-12-04T02:05:28.385Z,51.18
2022-12-04T02:07:58.506Z,51.02
2022-12-04T02:10:27.334Z,51.00
2022-12-04T02:12:59.576Z,51.08
2022-12-04T02:15:29.778Z,51.12
2022-12-04T02:18:00.796Z,51.19
2022-12-04T02:20:31.166Z,51.26
2022-12-04T02:23:27.102Z,51.21
2022-12-04T02:25:58.086Z,51.31
2022-12-04T02:28:27.802Z,51.41
2022-12-04T02:30:57.587Z,51.39
2022-12-04T02:33:26.766Z,51.58
2022-12-04T02:35:57.901Z,51.51
2022-12-04T02:38:27.136Z,51.59
2022-12-04T02:40:58.266Z,51.37
2022-12-04T02:43:28.470Z,51.78
2022-12-04T02:45:58.927Z,52.02
2022-12-04T02:48:26.865Z,51.99
2022-12-04T02:50:54.949Z,52.06
2022-12-04T02:53:26.029Z,52.12
2022-12-04T02:55:55.111Z,52.05
2022-12-04T02:58:24.816Z,51.99
2022-12-04T03:00:54.325Z,52.02
2022-12-04T03:03:23.571Z,51.83
2022-12-04T03:05:55.121Z,51.63
2022-12-04T03:08:24.223Z,51.62
2022-12-04T03:10:53.018Z,51.32
2022-12-04T03:13:22.057Z,51.12
2022-12-04T03:15:51.941Z,50.57
2022-12-04T03:18:22.916Z,50.45
2022-12-04T03:20:52.155Z,50.26
2022-12-04T03:23:21.809Z,50.15
2022-12-04T03:25:52.419Z,49.96
2022-12-04T03:28:23.590Z,49.89
2022-12-04T03:30:54.674Z,49.92
2022-12-04T03:33:25.026Z,50.07
2022-12-04T03:35:54.098Z,50.01
2022-12-04T03:38:23.354Z,49.85
2022-12-04T03:40:55.618Z,49.58
2022-12-04T03:43:27.062Z,49.52
2022-12-04T03:45:56.369Z,49.09
2022-12-04T03:48:27.508Z,48.94
2022-12-04T03:50:58.763Z,48.96
2022-12-04T03:53:29.124Z,48.71
2022-12-04T03:55:59.152Z,48.56
2022-12-04T03:58:28.974Z,48.36
2022-12-04T04:00:57.078Z,48.46
2022-12-04T04:03:28.459Z,48.26
2022-12-04T04:05:57.573Z,48.18
2022-12-04T04:08:27.927Z,48.09
2022-12-04T04:10:57.413Z,48.01
2022-12-04T04:13:45.412Z,47.91
2022-12-04T04:16:33.698Z,48.07
2022-12-04T04:19:16.883Z,48.06
2022-12-04T04:22:02.401Z,48.04
2022-12-04T04:24:32.615Z,48.21
2022-12-04T04:27:00.489Z,48.26
2022-12-04T04:29:28.493Z,48.52
2022-12-04T04:31:58.716Z,48.44
2022-12-04T04:34:29.986Z,48.21
2022-12-04T04:37:00.285Z,48.38
2022-12-04T04:39:32.353Z,48.36
2022-12-04T04:42:03.898Z,48.48
2022-12-04T04:44:34.484Z,48.50
2022-12-04T04:47:04.637Z,48.50
2022-12-04T04:49:35.039Z,48.15
2022-12-04T04:52:02.986Z,48.11
2022-12-04T04:54:31.205Z,47.87
2022-12-04T04:56:59.180Z,47.98
2022-12-04T04:59:27.114Z,47.81
2022-12-04T05:01:55.110Z,47.80
2022-12-04T05:04:23.075Z,47.74
2022-12-04T05:06:52.350Z,47.82
2022-12-04T05:09:20.246Z,47.69
2022-12-04T05:11:48.137Z,47.60
2022-12-04T05:14:16.211Z,47.57
2022-12-04T05:16:44.113Z,47.55
2022-12-04T05:19:29.421Z,47.45
2022-12-04T05:21:58.698Z,47.57
2022-12-04T05:24:26.745Z,47.42
2022-12-04T05:26:54.657Z,47.55
2022-12-04T05:29:22.531Z,47.57
2022-12-04T05:31:50.515Z,47.45
2022-12-04T05:34:18.467Z,47.38
2022-12-04T05:36:46.362Z,47.39
2022-12-04T05:39:16.129Z,47.45
2022-12-04T05:41:44.047Z,47.47
2022-12-04T05:44:11.991Z,47.43
2022-12-04T05:46:39.976Z,47.46
2022-12-04T05:49:07.950Z,47.36
2022-12-04T05:51:35.831Z,47.42
2022-12-04T05:54:03.773Z,47.52
2022-12-04T05:56:33.071Z,47.47
2022-12-04T05:59:00.986Z,47.66
2022-12-04T06:01:28.865Z,47.49
2022-12-04T06:03:56.793Z,47.21
2022-12-04T06:06:25.782Z,47.34
2022-12-04T06:08:55.373Z,47.47
2022-12-04T06:11:24.007Z,47.37
2022-12-04T06:13:53.377Z,47.45
2022-12-04T06:16:23.014Z,47.51
2022-12-04T06:18:51.675Z,47.09
2022-12-04T06:21:19.690Z,47.30
2022-12-04T06:23:47.695Z,47.38
2022-12-04T06:26:15.767Z,47.34
2022-12-04T06:28:43.698Z,47.38
2022-12-04T06:31:15.052Z,47.37
2022-12-04T06:33:43.032Z,47.29
2022-12-04T06:36:13.456Z,47.13
2022-12-04T06:38:41.497Z,47.16
2022-12-04T06:41:10.183Z,47.09
2022-12-04T06:43:38.096Z,47.02
2022-12-04T06:46:06.939Z,46.82
2022-12-04T06:48:36.291Z,46.79
2022-12-04T06:51:05.208Z,46.87
2022-12-04T06:53:33.146Z,46.99
2022-12-04T06:56:01.884Z,47.05
2022-12-04T06:58:30.026Z,47.18
2022-12-04T07:00:58.118Z,46.96
2022-12-04T07:03:26.154Z,46.97
2022-12-04T07:05:55.449Z,47.10
2022-12-04T07:08:23.362Z,47.06
2022-12-04T07:10:57.440Z,47.12
2022-12-04T07:13:27.039Z,47.00
2022-12-04T07:15:54.918Z,46.86
2022-12-04T07:18:22.856Z,46.99
2022-12-04T07:20:50.790Z,46.84
2022-12-04T07:23:20.051Z,46.74
2022-12-04T07:25:47.985Z,46.61
2022-12-04T07:28:15.902Z,46.67
2022-12-04T07:30:43.942Z,46.72
2022-12-04T07:33:11.845Z,46.74
2022-12-04T07:35:39.786Z,46.74
2022-12-04T07:38:07.726Z,46.66
2022-12-04T07:40:38.173Z,46.57
2022-12-04T07:43:06.157Z,46.75
2022-12-04T07:45:34.141Z,46.72
2022-12-04T07:48:02.084Z,46.74
2022-12-04T07:50:30.138Z,46.74
2022-12-04T07:52:58.175Z,46.64
2022-12-04T07:55:26.839Z,46.42
2022-12-04T07:57:56.497Z,46.36
2022-12-04T08:00:24.637Z,46.34
2022-12-04T08:02:52.567Z,46.06
2022-12-04T08:05:20.505Z,46.07
2022-12-04T08:07:48.538Z,46.05
2022-12-04T08:10:16.495Z,46.09
2022-12-04T08:12:44.411Z,46.13
2022-12-04T08:15:13.944Z,46.47
2022-12-04T08:17:41.970Z,46.56
2022-12-04T08:20:10.550Z,46.63
2022-12-04T08:22:38.517Z,46.95
2022-12-04T08:25:07.010Z,46.75
2022-12-04T08:27:35.517Z,46.74
2022-12-04T08:30:03.430Z,46.77
2022-12-04T08:32:32.782Z,46.50
2022-12-04T08:35:00.706Z,46.65
2022-12-04T08:37:28.640Z,46.63
2022-12-04T08:39:58.582Z,46.62
2022-12-04T08:42:26.661Z,46.62
2022-12-04T08:44:57.417Z,46.85
2022-12-04T08:47:26.744Z,46.93
2022-12-04T08:49:58.220Z,47.04
2022-12-04T08:52:27.191Z,47.00
2022-12-04T08:54:56.489Z,47.02
2022-12-04T08:57:25.412Z,47.21
2022-12-04T08:59:58.054Z,47.23
2022-12-04T09:02:29.044Z,47.61
2022-12-04T09:04:59.957Z,47.59
2022-12-04T09:07:28.899Z,47.51
2022-12-04T09:10:08.760Z,47.62
2022-12-04T09:12:36.778Z,47.73
2022-12-04T09:15:10.632Z,47.88
2022-12-04T09:17:40.552Z,47.88
2022-12-04T09:20:15.412Z,47.93
2022-12-04T09:23:03.251Z,47.96
2022-12-04T09:25:32.184Z,48.09
2022-12-04T09:28:00.141Z,48.19
2022-12-04T09:30:28.316Z,48.25
2022-12-04T09:32:56.265Z,48.29
2022-12-04T09:35:25.547Z,48.39
2022-12-04T09:37:53.469Z,48.46
2022-12-04T09:40:24.933Z,48.34
2022-12-04T09:42:56.094Z,48.26
2022-12-04T09:45:24.950Z,48.43
2022-12-04T09:47:54.235Z,48.38
2022-12-04T09:50:23.054Z,48.36
2022-12-04T09:52:57.250Z,48.51
2022-12-04T09:55:26.493Z,48.64
2022-12-04T09:58:01.304Z,48.66
2022-12-04T10:00:30.110Z,48.79
2022-12-04T10:03:00.468Z,48.73
2022-12-04T10:05:43.372Z,49.05
2022-12-04T10:08:17.417Z,49.05
2022-12-04T10:10:47.713Z,49.16
2022-12-04T10:13:44.650Z,49.35
2022-12-04T10:16:14.675Z,49.28
2022-12-04T10:18:45.892Z,49.15
2022-12-04T10:21:24.785Z,49.17
2022-12-04T10:24:00.243Z,49.34
2022-12-04T10:26:29.882Z,49.15
2022-12-04T10:29:00.534Z,49.22
2022-12-04T10:31:28.947Z,48.91
2022-12-04T10:34:00.004Z,49.17
2022-12-04T10:36:30.530Z,49.42
2022-12-04T10:39:00.410Z,49.33
2022-12-04T10:41:30.362Z,49.56
2022-12-04T10:43:58.315Z,49.59
2022-12-04T10:46:27.895Z,49.67
2022-12-04T10:48:58.035Z,49.76
2022-12-04T10:51:25.955Z,49.88
2022-12-04T10:53:53.864Z,49.88
2022-12-04T10:56:24.284Z,49.95
2022-12-04T10:58:59.585Z,49.89
2022-12-04T11:01:28.038Z,49.80
2022-12-04T11:03:57.763Z,49.71
2022-12-04T11:06:25.936Z,49.10
2022-12-04T11:08:54.140Z,49.02
2022-12-04T11:11:26.798Z,48.39
2022-12-04T11:14:03.002Z,48.04
2022-12-04T11:16:36.709Z,48.36
2022-12-04T11:19:04.756Z,48.12
2022-12-04T11:21:32.704Z,47.25
2022-12-04T11:24:00.708Z,46.92
2022-12-04T11:26:34.816Z,46.74
2022-12-04T11:29:02.785Z,47.26
2022-12-04T11:31:30.766Z,47.54
2022-12-04T11:33:59.859Z,47.97
2022-12-04T11:36:28.839Z,48.32
2022-12-04T11:39:05.699Z,48.43
2022-12-04T11:41:35.043Z,48.73
2022-12-04T11:44:03.053Z,48.96
2022-12-04T11:46:31.950Z,49.27
2022-12-04T11:48:59.963Z,49.36
2022-12-04T11:51:35.560Z,49.96
2022-12-04T11:54:07.578Z,49.53
2022-12-04T11:56:37.469Z,48.08
2022-12-04T11:59:24.340Z,47.34
2022-12-04T12:01:58.174Z,46.65
2022-12-04T12:04:59.323Z,46.87
2022-12-04T12:07:34.688Z,47.62
2022-12-04T12:10:05.940Z,49.16
2022-12-04T12:12:41.137Z,48.82
2022-12-04T12:15:15.158Z,48.75
2022-12-04T12:17:47.138Z,47.80
2022-12-04T12:20:16.717Z,46.41
2022-12-04T12:23:04.023Z,45.63
2022-12-04T12:25:34.314Z,45.29
2022-12-04T12:28:16.991Z,43.55
2022-12-04T12:30:53.775Z,43.42
2022-12-04T12:33:22.546Z,43.50
2022-12-04T12:35:55.156Z,43.74
2022-12-04T12:38:23.975Z,44.54
2022-12-04T12:40:54.520Z,45.17
2022-12-04T12:43:25.565Z,45.67
2022-12-04T12:45:55.189Z,45.98
2022-12-04T12:48:27.350Z,46.17
2022-12-04T12:51:14.914Z,46.60
2022-12-04T12:53:47.992Z,46.67
2022-12-04T12:56:15.906Z,46.88
2022-12-04T12:58:47.271Z,47.11
2022-12-04T13:01:20.497Z,47.49
2022-12-04T13:03:51.863Z,47.58
2022-12-04T13:06:20.885Z,47.69
2022-12-04T13:08:55.836Z,47.59
2022-12-04T13:11:25.638Z,47.47
2022-12-04T13:13:57.709Z,47.37
2022-12-04T13:16:26.688Z,47.29
2022-12-04T13:18:58.911Z,47.58
2022-12-04T13:21:32.423Z,47.60
2022-12-04T13:24:26.372Z,47.65
2022-12-04T13:26:56.631Z,47.59
2022-12-04T13:29:36.912Z,47.54
2022-12-04T13:32:25.593Z,47.29
2022-12-04T13:34:59.267Z,47.27
2022-12-04T13:37:32.051Z,47.40
2022-12-04T13:40:29.443Z,47.67
2022-12-04T13:43:26.590Z,47.87
2022-12-04T13:45:56.979Z,48.05
2022-12-04T13:48:33.356Z,48.18
2022-12-04T13:51:06.660Z,48.24
2022-12-04T13:53:37.349Z,48.42
2022-12-04T13:56:09.501Z,48.45
2022-12-04T13:58:39.414Z,48.49
2022-12-04T14:01:21.977Z,48.59
2022-12-04T14:03:50.658Z,48.72
2022-12-04T14:06:23.375Z,48.71
2022-12-04T14:08:56.051Z,48.73
2022-12-04T14:11:24.234Z,48.65
2022-12-04T14:13:54.382Z,48.64
2022-12-04T14:16:25.432Z,48.82
2022-12-04T14:18:54.577Z,48.89
2022-12-04T14:21:22.529Z,49.08
2022-12-04T14:23:50.717Z,49.33
2022-12-04T14:26:23.185Z,49.08
2022-12-04T14:28:53.255Z,48.87
2022-12-04T14:31:30.649Z,48.81
2022-12-04T14:34:00.035Z,48.76
2022-12-04T14:36:28.653Z,48.91
2022-12-04T14:39:11.667Z,49.13
2022-12-04T14:41:39.634Z,49.42
2022-12-04T14:44:07.631Z,49.52
2022-12-04T14:46:40.620Z,49.70
2022-12-04T14:49:18.394Z,49.70
2022-12-04T14:51:49.183Z,49.82
2022-12-04T14:54:19.392Z,50.05
2022-12-04T14:56:56.921Z,49.87
2022-12-04T14:59:26.204Z,49.86
2022-12-04T15:01:56.009Z,49.87
2022-12-04T15:04:25.215Z,49.87
2022-12-04T15:06:58.483Z,50.02
2022-12-04T15:09:46.096Z,50.02
2022-12-04T15:12:36.480Z,50.07
2022-12-04T15:15:10.624Z,49.97
2022-12-04T15:17:39.937Z,50.01
2022-12-04T15:20:12.663Z,50.12
2022-12-04T15:22:40.607Z,49.95
2022-12-04T15:25:16.063Z,49.93
2022-12-04T15:27:43.994Z,49.84
2022-12-04T15:30:17.102Z,49.75
2022-12-04T15:32:46.942Z,49.80
2022-12-04T15:35:17.710Z,49.64
2022-12-04T15:37:45.728Z,49.77
2022-12-04T15:40:19.732Z,49.74
2022-12-04T15:42:47.606Z,49.77
2022-12-04T15:45:25.357Z,49.68
2022-12-04T15:47:55.095Z,49.72
2022-12-04T15:50:27.044Z,49.73
2022-12-04T15:52:58.892Z,50.00
2022-12-04T15:55:27.583Z,50.15
2022-12-04T15:57:56.248Z,50.23
2022-12-04T16:00:25.558Z,50.35
2022-12-04T16:02:54.934Z,50.49
2022-12-04T16:05:37.519Z,50.38
2022-12-04T16:08:23.880Z,50.40
2022-12-04T16:10:59.422Z,50.41
2022-12-04T16:13:32.266Z,50.22
2022-12-04T16:16:01.226Z,50.49
2022-12-04T16:18:30.637Z,50.58
2022-12-04T16:20:58.672Z,50.56
2022-12-04T16:23:26.977Z,50.56
2022-12-04T16:25:54.862Z,50.54
2022-12-04T16:28:22.811Z,50.49
2022-12-04T16:30:51.647Z,50.45
2022-12-04T16:33:19.610Z,50.56
2022-12-04T16:35:49.015Z,50.73
2022-12-04T16:38:17.573Z,50.66
2022-12-04T16:40:45.995Z,50.65
2022-12-04T16:43:14.986Z,50.85
2022-12-04T16:45:45.527Z,50.64
2022-12-04T16:48:13.894Z,50.92
2022-12-04T16:50:41.905Z,51.00
2022-12-04T16:53:11.463Z,51.03
2022-12-04T16:55:40.206Z,51.06
2022-12-04T16:58:08.268Z,51.26
2022-12-04T17:00:36.559Z,51.31
2022-12-04T17:03:05.243Z,51.30
2022-12-04T17:05:35.892Z,51.31
2022-12-04T17:08:03.890Z,51.29
2022-12-04T17:10:33.238Z,51.42
2022-12-04T17:13:01.234Z,51.24
2022-12-04T17:15:29.140Z,51.35
2022-12-04T17:17:57.067Z,51.40
2022-12-04T17:20:24.978Z,51.39
2022-12-04T17:22:52.889Z,51.51
2022-12-04T17:25:20.946Z,51.56
2022-12-04T17:27:50.207Z,51.56
2022-12-04T17:30:18.377Z,51.49
2022-12-04T17:32:47.820Z,51.39
2022-12-04T17:35:15.836Z,51.39
2022-12-04T17:37:43.774Z,51.51
2022-12-04T17:40:13.096Z,51.52
2022-12-04T17:42:41.080Z,51.53
2022-12-04T17:45:12.109Z,51.48
2022-12-04T17:47:40.031Z,51.21
2022-12-04T17:50:08.721Z,51.46
2022-12-04T17:52:36.651Z,51.49
2022-12-04T17:55:04.658Z,51.28
2022-12-04T17:57:32.546Z,51.46
2022-12-04T18:00:00.425Z,51.41
2022-12-04T18:02:29.775Z,51.46
2022-12-04T18:04:57.911Z,51.28
2022-12-04T18:07:26.059Z,51.31
2022-12-04T18:09:54.117Z,51.26
2022-12-04T18:12:22.540Z,51.30
2022-12-04T18:14:50.546Z,51.36
2022-12-04T18:17:20.673Z,51.30
2022-12-04T18:19:50.044Z,51.33
2022-12-04T18:22:17.968Z,51.31
2022-12-04T18:24:45.917Z,51.42
2022-12-04T18:27:13.862Z,51.30
2022-12-04T18:29:41.767Z,51.27
2022-12-04T18:32:09.822Z,51.17
2022-12-04T18:34:39.036Z,51.19
2022-12-04T18:37:08.354Z,51.03
2022-12-04T18:39:36.307Z,51.07
2022-12-04T18:42:04.410Z,50.98
2022-12-04T18:44:32.363Z,51.11
2022-12-04T18:47:00.355Z,50.97
2022-12-04T18:49:28.301Z,50.98
2022-12-04T18:51:56.290Z,50.99
2022-12-04T18:54:25.760Z,51.11
2022-12-04T18:56:53.726Z,50.95
2022-12-04T18:59:22.492Z,50.97
2022-12-04T19:01:51.060Z,51.05
2022-12-04T19:04:19.621Z,50.90
2022-12-04T19:06:48.710Z,50.98
2022-12-04T19:09:18.501Z,50.90
2022-12-04T19:11:47.824Z,50.95
2022-12-04T19:14:23.117Z,50.96
2022-12-04T19:16:51.877Z,50.98
2022-12-04T19:19:19.856Z,50.96
2022-12-04T19:21:47.761Z,50.86
2022-12-04T19:24:15.668Z,50.89
2022-12-04T19:26:43.588Z,50.91
2022-12-04T19:29:14.107Z,50.86
2022-12-04T19:31:42.218Z,50.74
2022-12-04T19:34:10.234Z,50.78
2022-12-04T19:36:38.136Z,50.96
2022-12-04T19:39:07.206Z,50.85
2022-12-04T19:41:37.276Z,50.93
2022-12-04T19:44:25.965Z,50.85
2022-12-04T19:46:54.747Z,50.90
2022-12-04T19:49:22.684Z,50.79
2022-12-04T19:51:50.661Z,50.88
2022-12-04T19:54:18.836Z,50.79
2022-12-04T19:56:51.186Z,50.74
2022-12-04T19:59:19.717Z,50.89
2022-12-04T20:01:48.208Z,50.80
2022-12-04T20:04:17.722Z,50.89
2022-12-04T20:06:46.422Z,50.95
2022-12-04T20:09:15.699Z,50.84
2022-12-04T20:11:43.618Z,50.59
2022-12-04T20:14:11.690Z,50.52
2022-12-04T20:16:40.062Z,50.57
2022-12-04T20:19:08.955Z,50.38
2022-12-04T20:21:38.267Z,50.51
2022-12-04T20:24:07.263Z,50.59
2022-12-04T20:26:37.288Z,50.54
2022-12-04T20:29:05.559Z,50.61
2022-12-04T20:31:35.512Z,50.64
2022-12-04T20:34:05.280Z,50.44
2022-12-04T20:36:36.489Z,50.54
2022-12-04T20:39:05.832Z,50.61
2022-12-04T20:41:33.852Z,50.62
2022-12-04T20:44:04.833Z,50.62
2022-12-04T20:46:33.580Z,50.69
2022-12-04T20:49:01.738Z,50.63
2022-12-04T20:51:30.578Z,50.50
2022-12-04T20:53:59.212Z,50.46
2022-12-04T20:56:30.942Z,50.61
2022-12-04T20:58:59.254Z,50.40
2022-12-04T21:01:27.498Z,50.42
2022-12-04T21:03:55.465Z,50.57
2022-12-04T21:06:28.346Z,50.39
2022-12-04T21:09:01.883Z,50.39
2022-12-04T21:11:31.982Z,50.22
2022-12-04T21:14:17.919Z,50.25
2022-12-04T21:16:45.850Z,50.15
2022-12-04T21:19:15.649Z,50.18
2022-12-04T21:21:43.597Z,50.09
2022-12-04T21:24:12.526Z,49.94
2022-12-04T21:26:41.769Z,50.15
2022-12-04T21:29:09.784Z,49.86
2022-12-04T21:31:38.102Z,49.86
2022-12-04T21:34:07.371Z,49.69
2022-12-04T21:36:35.782Z,49.71
2022-12-04T21:39:03.875Z,49.78
2022-12-04T21:41:49.143Z,49.61
2022-12-04T21:44:19.101Z,49.48
2022-12-04T21:46:47.422Z,49.48
2022-12-04T21:49:15.473Z,49.48
2022-12-04T21:51:59.406Z,49.36
2022-12-04T21:54:27.539Z,49.40
2022-12-04T21:56:55.650Z,49.46
2022-12-04T21:59:25.312Z,49.37
2022-12-04T22:01:53.373Z,49.40
2022-12-04T22:04:22.036Z,49.32
2022-12-04T22:06:50.059Z,49.36
2022-12-04T22:09:17.991Z,49.41
2022-12-04T22:11:48.309Z,49.55
2022-12-04T22:14:16.272Z,49.41
2022-12-04T22:16:45.790Z,49.44
2022-12-04T22:19:13.943Z,49.51
2022-12-04T22:21:42.154Z,49.41
2022-12-04T22:24:10.624Z,49.31
2022-12-04T22:26:38.650Z,49.41
2022-12-04T22:29:33.777Z,49.25
2022-12-04T22:31:56.500Z,49.32
2022-12-04T22:34:24.548Z,49.42
2022-12-04T22:36:52.463Z,49.50
2022-12-04T22:39:20.394Z,49.63
2022-12-04T22:41:48.317Z,49.50
2022-12-04T22:44:16.412Z,49.59
2022-12-04T22:46:44.404Z,49.33
2022-12-04T22:49:13.801Z,49.41
2022-12-04T22:51:41.717Z,49.51
2022-12-04T22:54:12.942Z,49.25
2022-12-04T22:56:41.026Z,49.29
2022-12-04T22:59:08.927Z,49.09
2022-12-04T23:01:36.852Z,49.23
2022-12-04T23:04:04.941Z,49.18
2022-12-04T23:06:34.473Z,49.34
2022-12-04T23:09:03.483Z,49.31
2022-12-04T23:11:31.649Z,49.34
2022-12-04T23:14:02.249Z,49.14
2022-12-04T23:16:30.883Z,49.26
2022-12-04T23:18:58.945Z,49.27
2022-12-04T23:21:26.853Z,49.28
2022-12-04T23:23:56.190Z,49.14
2022-12-04T23:26:25.077Z,49.29
2022-12-04T23:28:52.986Z,49.29
2022-12-04T23:31:21.035Z,49.27
2022-12-04T23:33:49.066Z,49.37
2022-12-04T23:36:17.011Z,49.30
2022-12-04T23:38:45.214Z,49.06
2022-12-04T23:41:15.339Z,48.79
2022-12-04T23:43:43.290Z,48.97
2022-12-04T23:46:11.881Z,48.54
2022-12-04T23:48:39.875Z,47.98
2022-12-04T23:51:07.901Z,48.20
2022-12-04T23:53:35.825Z,48.21
2022-12-04T23:56:06.298Z,48.20
2022-12-04T23:58:35.781Z,47.98
